Time;durP1;ratioP1;P1;durP2;ratioP2;P2;SDS_P1;SDS_P2;PMS_P1;PMS_P2;Temp;Humidity;BMP_temperature;BMP_pressure;BME280_temperature;BME280_humidity;BME280_pressure;Samples;Min_cycle;Max_cycle;Signal;HPM_P1;HPM_P2
2023/04/09 00:02:18;;;;;;;0.80;0.80;;;;;;;5.23;86.51;100204.06;5055508;28;20049;-71
2023/04/09 00:04:48;;;;;;;0.82;0.82;;;;;;;5.24;86.30;100208.28;5055011;28;20049;-71
2023/04/09 00:07:18;;;;;;;2.30;2.10;;;;;;;5.21;86.56;100211.59;5055422;28;20037;-71
2023/04/09 00:09:47;;;;;;;0.93;0.88;;;;;;;5.14;86.30;100212.22;5055119;28;20056;-72
2023/04/09 00:12:15;;;;;;;0.77;0.75;;;;;;;5.08;86.21;100212.06;5055393;28;20051;-71
2023/04/09 00:14:44;;;;;;;1.88;1.73;;;;;;;5.03;86.34;100205.13;5054931;28;20083;-71
2023/04/09 00:17:13;;;;;;;2.92;2.10;;;;;;;5.00;86.62;100205.91;5054821;28;20095;-71
2023/04/09 00:19:42;;;;;;;3.78;3.20;;;;;;;5.03;86.92;100203.47;5054780;28;20049;-71
2023/04/09 00:22:10;;;;;;;1.90;1.48;;;;;;;5.08;86.83;100209.53;5054778;28;20053;-71
2023/04/09 00:24:41;;;;;;;1.53;1.43;;;;;;;5.14;86.66;100209.69;5055777;28;20387;-71
2023/04/09 00:27:10;;;;;;;3.53;1.30;;;;;;;5.16;86.46;100213.13;5054682;28;20045;-71
2023/04/09 00:29:38;;;;;;;0.57;0.57;;;;;;;5.17;86.42;100219.03;5053386;28;20051;-71
2023/04/09 00:32:13;;;;;;;0.77;0.77;;;;;;;5.10;86.62;100220.53;5054545;28;20057;-71
2023/04/09 00:34:53;;;;;;;1.08;0.98;;;;;;;5.05;86.92;100222.06;5054567;28;20111;-71
2023/04/09 00:37:22;;;;;;;3.97;2.90;;;;;;;5.01;86.56;100216.88;5053103;28;20080;-71
2023/04/09 00:39:52;;;;;;;0.80;0.80;;;;;;;5.04;86.86;100217.00;5054691;28;20495;-71
2023/04/09 00:42:21;;;;;;;4.10;3.03;;;;;;;5.06;87.06;100221.25;5053286;28;20095;-71
2023/04/09 00:44:50;;;;;;;;;;;;;;;5.05;86.67;100223.75;5054709;28;20053;-71
2023/04/09 00:47:19;;;;;;;2.28;1.85;;;;;;;5.03;87.17;100227.91;5054317;28;19925;-71
2023/04/09 00:49:48;;;;;;;4.90;3.97;;;;;;;4.99;86.93;100229.47;5053132;28;20052;-71
2023/04/09 00:52:17;;;;;;;1.50;1.40;;;;;;;5.03;87.00;100227.91;5054204;28;20332;-71
2023/04/09 00:54:46;;;;;;;2.67;2.47;;;;;;;5.06;86.89;100221.25;5054421;28;20041;-71
2023/04/09 00:57:16;;;;;;;0.63;0.63;;;;;;;5.13;87.36;100215.59;5053529;28;20514;-71
2023/04/09 00:59:45;;;;;;;1.92;1.80;;;;;;;5.09;87.32;100208.69;5054058;28;20076;-70
2023/04/09 01:02:14;;;;;;;2.07;1.87;;;;;;;5.16;87.29;100223.25;5054607;28;20380;-70
2023/04/09 01:04:43;;;;;;;2.92;2.72;;;;;;;5.14;87.11;100219.81;5053993;28;20633;-70
2023/04/09 01:07:18;;;;;;;1.50;1.40;;;;;;;5.13;87.33;100218.13;5053846;28;20052;-70
2023/04/09 01:09:54;;;;;;;0.73;0.73;;;;;;;5.16;87.30;100217.34;5052788;28;20075;-70
2023/04/09 01:12:33;;;;;;;1.15;1.05;;;;;;;5.17;87.17;100226.63;5053943;28;20045;-70
2023/04/09 01:15:06;;;;;;;1.05;1.00;;;;;;;5.14;87.26;100213.88;5053744;28;20055;-70
2023/04/09 01:17:44;;;;;;;3.22;1.35;;;;;;;4.95;87.55;100183.81;5053729;28;20072;-70
2023/04/09 01:20:18;;;;;;;2.83;1.83;;;;;;;5.14;87.35;100218.94;5052588;28;20045;-70
2023/04/09 01:23:01;;;;;;;1.08;1.05;;;;;;;5.10;87.52;100228.13;5052587;28;20052;-70
2023/04/09 01:25:45;;;;;;;2.08;1.88;;;;;;;5.09;87.47;100226.41;5052557;28;20055;-70
2023/04/09 01:28:22;;;;;;;2.83;2.35;;;;;;;5.02;87.51;100223.63;5053721;28;20136;-70
2023/04/09 01:30:59;;;;;;;1.60;1.40;;;;;;;4.99;87.32;100229.47;5053609;28;20052;-70
2023/04/09 01:33:31;;;;;;;1.38;1.27;;;;;;;4.98;87.74;100220.19;5054109;28;20397;-70
2023/04/09 01:36:01;;;;;;;1.40;1.30;;;;;;;4.99;87.78;100223.56;5052074;28;20062;-69
2023/04/09 01:38:30;;;;;;;1.80;1.70;;;;;;;4.94;87.65;100220.91;5052480;28;20057;-70
2023/04/09 01:41:00;;;;;;;2.07;1.60;;;;;;;4.98;87.99;100222.72;5052042;28;20037;-69
2023/04/09 01:43:32;;;;;;;1.70;1.60;;;;;;;4.98;88.07;100222.72;5052627;28;20136;-70
2023/04/09 01:46:02;;;;;;;2.05;1.95;;;;;;;4.94;88.22;100225.97;5052276;28;20102;-69
2023/04/09 01:48:33;;;;;;;0.82;0.82;;;;;;;4.99;87.90;100224.41;5052622;28;20555;-69
2023/04/09 01:51:02;;;;;;;3.47;2.47;;;;;;;5.02;88.42;100216.06;5053554;28;20045;-69
2023/04/09 01:53:31;;;;;;;1.03;0.93;;;;;;;5.03;88.26;100217.78;5052327;28;20509;-69
2023/04/09 01:56:00;;;;;;;0.77;0.77;;;;;;;5.05;88.50;100213.63;5053239;28;20076;-70
2023/04/09 01:58:32;;;;;;;1.23;1.13;;;;;;;5.09;88.49;100216.28;5053518;28;20045;-69
2023/04/09 02:01:07;;;;;;;1.88;1.77;;;;;;;5.08;88.09;100214.59;5035758;28;20045;-69
2023/04/09 02:03:41;;;;;;;0.80;0.80;;;;;;;5.07;88.35;100217.91;5053161;28;20075;-69
2023/04/09 02:06:16;;;;;;;1.88;1.52;;;;;;;5.07;88.18;100217.91;5035419;28;20407;-70
2023/04/09 02:08:47;;;;;;;1.05;0.88;;;;;;;5.07;88.26;100217.91;5055587;28;20056;-69
2023/04/09 02:11:18;;;;;;;3.42;2.53;;;;;;;5.11;88.29;100219.72;5056200;28;20055;-69
2023/04/09 02:13:50;;;;;;;2.90;2.70;;;;;;;5.09;88.48;100211.22;5055956;28;20044;-69
2023/04/09 02:16:20;;;;;;;2.35;2.15;;;;;;;5.07;88.29;100212.84;5057388;28;20056;-69
2023/04/09 02:18:53;;;;;;;2.67;2.22;;;;;;;5.04;88.25;100215.28;5057210;28;20041;-69
2023/04/09 02:21:22;;;;;;;1.77;1.67;;;;;;;5.07;88.13;100219.59;5056246;28;20045;-70
2023/04/09 02:23:51;;;;;;;5.00;3.30;;;;;;;5.07;88.26;100215.38;5057035;28;20049;-70
2023/04/09 02:26:20;;;;;;;1.37;1.00;;;;;;;5.07;88.53;100212.00;5057146;28;20449;-69
2023/04/09 02:28:50;;;;;;;3.03;1.95;;;;;;;5.09;88.44;100208.69;5056874;28;20095;-69
2023/04/09 02:31:19;;;;;;;2.35;2.15;;;;;;;5.15;88.33;100216.47;5055645;28;20072;-69
2023/04/09 02:33:48;;;;;;;1.08;0.80;;;;;;;5.17;88.67;100206.41;5056802;28;20033;-69
2023/04/09 02:36:17;;;;;;;0.83;0.77;;;;;;;5.08;88.56;100199.41;5056694;28;20053;-70
2023/04/09 02:38:46;;;;;;;1.67;0.90;;;;;;;5.17;88.59;100208.94;5055499;28;20045;-69
2023/04/09 02:41:15;;;;;;;1.23;1.13;;;;;;;5.16;88.13;100208.06;5056689;28;20035;-70
2023/04/09 02:43:44;;;;;;;0.57;0.57;;;;;;;5.16;88.39;100203.00;5057029;28;20041;-71
2023/04/09 02:46:14;;;;;;;0.77;0.77;;;;;;;5.18;88.06;100211.50;5055699;28;20083;-69
2023/04/09 02:48:43;;;;;;;0.60;0.60;;;;;;;5.13;88.33;100208.00;5056916;28;20071;-70
2023/04/09 02:51:12;;;;;;;1.00;0.95;;;;;;;5.06;87.98;100206.06;5056735;28;20453;-69
2023/04/09 02:53:41;;;;;;;0.70;0.68;;;;;;;5.02;88.34;100204.28;5055509;28;20037;-70
2023/04/09 02:56:10;;;;;;;1.80;1.70;;;;;;;4.95;87.90;100212.50;5056368;28;20457;-70
2023/04/09 02:58:38;;;;;;;0.50;0.50;;;;;;;4.91;88.28;100210.69;5056383;28;20522;-70
2023/04/09 03:01:07;;;;;;;0.50;0.50;;;;;;;4.96;88.13;100206.63;5055100;28;20044;-70
2023/04/09 03:03:40;;;;;;;3.43;1.83;;;;;;;4.97;88.04;100210.88;5055361;28;20037;-70
2023/04/09 03:06:10;;;;;;;2.25;1.90;;;;;;;5.00;88.05;100210.09;5055224;28;20131;-69
2023/04/09 03:08:39;;;;;;;0.50;0.50;;;;;;;5.03;88.16;100206.00;5056068;28;20052;-70
2023/04/09 03:11:08;;;;;;;0.37;0.37;;;;;;;5.05;88.23;100206.03;5056645;28;20095;-70
2023/04/09 03:13:37;;;;;;;1.70;1.60;;;;;;;5.04;88.44;100202.63;5056134;28;20517;-70
2023/04/09 03:16:07;;;;;;;0.57;0.57;;;;;;;4.99;87.90;100211.75;5055774;28;20041;-70
2023/04/09 03:18:37;;;;;;;1.00;0.80;;;;;;;4.94;87.70;100213.31;5056258;28;20045;-70
2023/04/09 03:21:07;;;;;;;1.50;1.40;;;;;;;4.96;88.23;100209.16;5055116;28;20498;-70
2023/04/09 03:23:39;;;;;;;0.80;0.80;;;;;;;4.98;88.21;100202.47;5055850;28;20071;-69
2023/04/09 03:26:09;;;;;;;1.13;1.08;;;;;;;5.03;88.56;100211.06;5054523;28;20076;-70
2023/04/09 03:28:47;;;;;;;1.52;1.13;;;;;;;5.07;88.18;100205.28;5055731;28;20077;-70
2023/04/09 03:31:17;;;;;;;0.80;0.80;;;;;;;5.07;88.57;100212.84;5055664;28;20561;-70
2023/04/09 03:33:49;;;;;;;2.03;1.92;;;;;;;5.03;88.17;100206.00;5055632;28;20049;-70
2023/04/09 03:36:18;;;;;;;2.95;1.90;;;;;;;5.03;88.41;100203.47;5055238;28;20521;-70
2023/04/09 03:38:59;;;;;;;3.97;1.55;;;;;;;5.04;88.36;100209.41;5055603;28;20045;-70
2023/04/09 03:41:42;;;;;;;4.80;1.90;;;;;;;5.05;88.52;100209.44;5055548;28;20049;-70
2023/04/09 03:44:15;;;;;;;2.80;2.47;;;;;;;5.11;88.56;100204.53;5055784;28;20519;-70
2023/04/09 03:46:56;;;;;;;2.45;2.25;;;;;;;5.10;88.62;100207.03;5055372;28;20145;-70
2023/04/09 03:49:28;;;;;;;4.10;2.20;;;;;;;5.11;88.43;100214.66;5054444;28;20055;-71
2023/04/09 03:52:06;;;;;;;1.17;1.13;;;;;;;5.06;88.54;100211.13;5054488;28;20045;-70
2023/04/09 03:54:39;;;;;;;4.28;2.85;;;;;;;5.03;88.83;100216.13;5037726;28;20495;-70
2023/04/09 03:57:14;;;;;;;1.60;1.50;;;;;;;5.06;88.65;100213.66;5055384;28;20087;-70
2023/04/09 03:59:45;;;;;;;5.55;3.00;;;;;;;5.08;89.12;100209.53;5055254;28;20553;-72
2023/04/09 04:02:19;;;;;;;2.33;1.75;;;;;;;5.08;88.91;100214.59;5054296;28;20403;-69
2023/04/09 04:04:59;;;;;;;1.83;1.38;;;;;;;5.08;88.74;100209.53;5055096;28;20056;-70
2023/04/09 04:07:33;;;;;;;8.13;3.75;;;;;;;5.03;88.44;100216.13;5054969;28;20051;-70
2023/04/09 04:10:09;;;;;;;1.13;0.90;;;;;;;5.00;88.98;100221.06;5055331;28;20052;-70
2023/04/09 04:12:42;;;;;;;0.63;0.63;;;;;;;4.98;88.86;100222.72;5054048;28;20561;-70
2023/04/09 04:15:22;;;;;;;2.95;2.67;;;;;;;4.96;88.93;100229.41;5054967;28;20045;-70
2023/04/09 04:17:55;;;;;;;4.68;1.58;;;;;;;4.98;88.57;100227.78;5054702;28;20041;-70
2023/04/09 04:20:38;;;;;;;2.95;2.65;;;;;;;4.95;88.81;100230.19;5054763;28;20045;-70
2023/04/09 04:23:11;;;;;;;0.57;0.57;;;;;;;4.96;88.78;100242.03;5054746;28;20045;-71
2023/04/09 04:25:51;;;;;;;1.92;1.83;;;;;;;4.96;88.59;100238.66;5054952;28;20049;-70
2023/04/09 04:28:28;;;;;;;3.33;2.95;;;;;;;4.98;88.71;100240.41;5055135;28;20049;-70
2023/04/09 04:30:58;;;;;;;1.58;1.48;;;;;;;5.00;88.97;100240.44;5054435;28;20045;-70
2023/04/09 04:33:29;;;;;;;2.28;2.08;;;;;;;5.01;89.09;100240.53;5053712;28;20049;-70
2023/04/09 04:36:06;;;;;;;2.90;1.53;;;;;;;5.00;88.76;100245.50;5054489;28;20057;-70
2023/04/09 04:38:42;;;;;;;3.13;2.55;;;;;;;4.91;88.62;100241.03;5054329;28;20297;-70
2023/04/09 04:41:22;;;;;;;5.25;2.28;;;;;;;4.96;88.56;100239.50;5054505;28;20052;-70
2023/04/09 04:44:05;;;;;;;0.77;0.77;;;;;;;4.93;88.85;100244.47;5054318;28;20126;-70
2023/04/09 04:46:34;;;;;;;3.10;1.63;;;;;;;4.93;88.91;100241.94;5053031;28;20128;-69
2023/04/09 04:49:03;;;;;;;1.73;1.63;;;;;;;4.94;88.79;100251.25;5054995;28;20052;-70
2023/04/09 04:51:38;;;;;;;2.78;2.50;;;;;;;4.93;88.81;100238.53;5052907;28;20056;-70
2023/04/09 04:54:10;;;;;;;0.90;0.82;;;;;;;4.94;88.84;100251.25;5054098;28;20051;-70
2023/04/09 04:56:40;;;;;;;2.13;1.92;;;;;;;4.93;89.08;100243.59;5052954;28;20041;-70
2023/04/09 04:59:18;;;;;;;1.83;1.73;;;;;;;4.91;89.10;100235.13;5052994;28;20513;-70
2023/04/09 05:02:07;;;;;;;3.15;2.90;;;;;;;4.93;89.32;100244.47;5053996;28;20502;-70
2023/04/09 05:04:52;;;;;;;1.60;1.50;;;;;;;4.97;88.90;100243.75;5054512;28;20044;-70
2023/04/09 05:07:30;;;;;;;1.52;1.42;;;;;;;4.97;88.79;100243.75;5054606;28;20084;-70
2023/04/09 05:09:59;;;;;;;2.42;2.25;;;;;;;4.94;88.90;100245.34;5052827;28;20076;-70
2023/04/09 05:12:35;;;;;;;2.28;2.13;;;;;;;4.90;89.15;100244.38;5053958;28;20140;-70
2023/04/09 05:15:07;;;;;;;1.58;1.48;;;;;;;4.96;89.01;100244.56;5036316;28;20052;-70
2023/04/09 05:17:38;;;;;;;2.05;1.88;;;;;;;5.00;89.03;100248.91;5052876;28;20051;-70
2023/04/09 05:20:09;;;;;;;1.08;0.85;;;;;;;4.96;89.20;100249.63;5054069;28;20049;-70
2023/04/09 05:22:51;;;;;;;2.00;1.88;;;;;;;5.00;89.04;100256.50;5052947;28;20041;-71
2023/04/09 05:25:27;;;;;;;1.38;1.27;;;;;;;4.97;89.43;100256.38;5052597;28;20053;-69
2023/04/09 05:27:56;;;;;;;2.33;2.13;;;;;;;4.91;89.21;100256.22;5052535;28;20049;-69
2023/04/09 05:30:26;;;;;;;2.13;2.03;;;;;;;4.93;89.25;100254.59;5053342;28;20114;-69
2023/04/09 05:32:58;;;;;;;2.15;1.88;;;;;;;4.91;89.00;100261.28;5053922;28;20391;-69
2023/04/09 05:35:29;;;;;;;1.83;1.63;;;;;;;4.92;88.98;100268.03;5053593;28;20099;-70
2023/04/09 05:38:00;;;;;;;2.50;2.30;;;;;;;4.97;88.96;100266.50;5052342;28;20041;-69
2023/04/09 05:40:29;;;;;;;0.90;0.90;;;;;;;5.02;89.12;100270.03;5052604;28;20055;-69
2023/04/09 05:42:58;;;;;;;2.50;1.98;;;;;;;5.03;88.98;100271.78;5053018;28;20068;-69
2023/04/09 05:45:41;;;;;;;0.77;0.77;;;;;;;5.04;88.64;100278.53;5053790;28;20049;-68
2023/04/09 05:48:10;;;;;;;2.38;2.20;;;;;;;5.08;88.69;100285.41;5052217;28;20033;-70
2023/04/09 05:50:40;;;;;;;0.90;0.90;;;;;;;5.12;88.92;100281.28;5053658;28;20076;-68
2023/04/09 05:53:26;;;;;;;1.33;1.23;;;;;;;5.14;88.38;100293.19;5052414;28;20052;-68
2023/04/09 05:55:54;;;;;;;0.60;0.60;;;;;;;5.13;88.67;100285.56;5052567;28;20048;-67
2023/04/09 05:58:28;;;;;;;1.02;1.00;;;;;;;5.16;88.39;100289.03;5053355;28;20041;-68
2023/04/09 06:00:59;;;;;;;1.00;0.98;;;;;;;5.15;88.56;100292.38;5053824;28;20056;-68
2023/04/09 06:03:28;;;;;;;1.67;1.57;;;;;;;5.06;88.39;100271.84;5053154;28;20083;-68
2023/04/09 06:05:57;;;;;;;2.03;1.92;;;;;;;5.13;88.49;100291.47;5052321;28;20579;-67
2023/04/09 06:08:27;;;;;;;1.50;1.40;;;;;;;5.20;88.53;100288.31;5052597;28;20127;-67
2023/04/09 06:10:56;;;;;;;1.00;1.00;;;;;;;5.28;88.63;100296.13;5053300;28;20041;-67
2023/04/09 06:13:25;;;;;;;1.57;1.47;;;;;;;5.32;88.69;100296.28;5053015;28;20045;-68
2023/04/09 06:15:53;;;;;;;1.58;1.48;;;;;;;5.31;88.60;100294.56;5053551;28;20515;-67
2023/04/09 06:18:22;;;;;;;1.45;1.27;;;;;;;5.37;88.15;100299.78;5052672;28;20048;-66
2023/04/09 06:21:01;;;;;;;1.48;1.33;;;;;;;5.45;88.67;100291.59;5052517;28;20048;-68
2023/04/09 06:23:31;;;;;;;3.05;2.13;;;;;;;5.46;88.55;100299.22;5048897;28;20037;-67
2023/04/09 06:26:00;;;;;;;1.85;1.75;;;;;;;5.52;88.65;100298.53;5053460;28;20049;-69
2023/04/09 06:28:30;;;;;;;1.40;1.30;;;;;;;5.61;88.57;100298.81;5053302;28;20045;-69
2023/04/09 06:30:59;;;;;;;2.33;2.08;;;;;;;5.69;88.62;100294.78;5053608;28;20495;-66
2023/04/09 06:33:28;;;;;;;2.33;1.95;;;;;;;5.72;88.46;100302.50;5051851;28;20033;-68
2023/04/09 06:35:57;;;;;;;0.77;0.77;;;;;;;5.76;88.67;100299.25;5052395;28;20495;-67
2023/04/09 06:38:25;;;;;;;0.88;0.88;;;;;;;5.85;88.64;100295.34;5052416;28;20566;-67
2023/04/09 06:40:57;;;;;;;2.53;2.33;;;;;;;5.92;88.43;100301.41;5052665;28;20069;-68
2023/04/09 06:43:26;;;;;;;0.80;0.80;;;;;;;5.96;88.66;100298.16;5052806;28;20041;-68
2023/04/09 06:45:55;;;;;;;3.85;2.55;;;;;;;6.00;88.44;100305.00;5053147;28;20061;-68
2023/04/09 06:48:24;;;;;;;1.03;0.97;;;;;;;5.95;88.25;100296.44;5053183;28;20099;-68
2023/04/09 06:50:53;;;;;;;1.45;1.33;;;;;;;5.94;88.27;100294.72;5052701;28;20041;-69
2023/04/09 06:53:21;;;;;;;2.83;1.27;;;;;;;5.97;88.24;100292.28;5052602;28;20159;-68
2023/04/09 06:55:50;;;;;;;4.63;2.88;;;;;;;6.04;88.07;100295.03;5054985;28;20041;-70
2023/04/09 06:58:21;;;;;;;3.90;3.20;;;;;;;6.17;88.05;100300.41;5055940;28;20136;-69
2023/04/09 07:00:49;;;;;;;2.60;2.40;;;;;;;6.25;87.93;100307.38;5056777;28;20823;-68
2023/04/09 07:03:19;;;;;;;1.75;1.65;;;;;;;6.25;87.97;100294.72;5056578;28;20048;-69
2023/04/09 07:05:48;;;;;;;2.63;1.38;;;;;;;6.34;87.84;100306.75;5055582;28;20076;-70
2023/04/09 07:08:16;;;;;;;1.00;1.00;;;;;;;6.46;87.68;100302.00;5055711;28;20140;-68
2023/04/09 07:10:46;;;;;;;1.23;1.15;;;;;;;6.49;87.74;100305.50;5055631;28;20095;-69
2023/04/09 07:13:15;;;;;;;0.68;0.68;;;;;;;6.48;87.28;100301.22;5036228;28;20578;-69
2023/04/09 07:15:45;;;;;;;2.70;1.40;;;;;;;6.52;87.74;100310.66;5036286;28;20443;-68
2023/04/09 07:18:14;;;;;;;4.75;3.20;;;;;;;6.73;87.50;100317.94;5036109;28;20044;-68
2023/04/09 07:20:43;;;;;;;2.55;2.35;;;;;;;6.82;86.84;100314.75;5036152;28;20068;-69
2023/04/09 07:23:12;;;;;;;1.08;1.00;;;;;;;6.90;87.02;100315.78;5035957;28;20053;-69
2023/04/09 07:25:41;;;;;;;8.73;3.00;;;;;;;6.98;87.08;100316.84;5036295;28;20042;-69
2023/04/09 07:28:10;;;;;;;1.17;1.10;;;;;;;7.02;86.95;100319.50;5035837;28;20132;-68
2023/04/09 07:30:40;;;;;;;0.93;0.90;;;;;;;7.00;86.47;100327.88;5035947;28;20049;-67
2023/04/09 07:33:11;;;;;;;2.63;2.30;;;;;;;7.03;86.06;100322.91;5036126;28;20443;-68
2023/04/09 07:35:40;;;;;;;1.30;1.25;;;;;;;7.15;85.58;100325.72;5035861;28;20472;-68
2023/04/09 07:38:09;;;;;;;;;;;;;;;7.35;85.52;100324.47;5036405;28;20051;-69
2023/04/09 07:40:38;;;;;;;0.65;0.65;;;;;;;7.49;85.43;100325.63;5035625;28;19925;-69
2023/04/09 07:43:07;;;;;;;1.73;1.63;;;;;;;7.53;85.42;100319.81;5035543;28;20137;-68
2023/04/09 07:45:35;;;;;;;0.68;0.63;;;;;;;7.47;84.52;100324.75;5035549;28;20124;-68
2023/04/09 07:48:04;;;;;;;2.28;1.38;;;;;;;7.54;83.82;100324.06;5035700;28;20037;-68
2023/04/09 07:50:35;;;;;;;1.45;1.35;;;;;;;7.56;83.21;100321.56;5035501;28;20045;-69
2023/04/09 07:53:04;;;;;;;1.10;1.00;;;;;;;7.64;82.99;100320.91;5035893;28;20431;-68
2023/04/09 07:55:32;;;;;;;2.75;2.22;;;;;;;7.72;82.80;100323.59;5034461;28;20037;-69
2023/04/09 07:58:02;;;;;;;1.75;1.30;;;;;;;7.81;81.44;100327.19;5035468;28;20076;-67
2023/04/09 08:00:31;;;;;;;;;;;;;;;7.85;81.29;100326.41;5047444;28;20140;-68
2023/04/09 08:03:00;;;;;;;1.88;1.77;;;;;;;7.92;80.07;100329.94;5055186;28;19982;-67
2023/04/09 08:05:30;;;;;;;3.72;2.78;;;;;;;7.97;79.79;100325.78;5054846;28;20049;-68
2023/04/09 08:08:01;;;;;;;1.60;1.50;;;;;;;8.07;78.86;100326.03;5055058;28;20041;-68
2023/04/09 08:10:30;;;;;;;2.55;1.55;;;;;;;8.09;78.89;100326.03;5055125;28;20051;-68
2023/04/09 08:12:59;;;;;;;2.83;1.83;;;;;;;8.11;77.23;100329.47;5055067;28;20553;-69
2023/04/09 08:15:29;;;;;;;2.22;2.08;;;;;;;8.13;77.19;100332.06;5054949;28;20041;-68
2023/04/09 08:17:58;;;;;;;1.45;0.93;;;;;;;8.13;76.49;100330.38;5054754;28;20057;-68
2023/04/09 08:20:28;;;;;;;;;;;;;;;8.13;75.60;100328.66;5055440;28;20049;-69
2023/04/09 08:22:58;;;;;;;3.72;2.70;;;;;;;8.06;75.04;100334.47;5054771;28;20370;-70
2023/04/09 08:25:28;;;;;;;1.38;1.00;;;;;;;7.95;74.72;100330.88;5054729;28;20089;-69
2023/04/09 08:27:57;;;;;;;3.67;2.97;;;;;;;7.87;75.27;100340.00;5054751;28;20045;-69
2023/04/09 08:30:26;;;;;;;1.35;1.25;;;;;;;7.90;74.18;100339.22;5054329;28;20095;-69
2023/04/09 08:32:54;;;;;;;0.93;0.93;;;;;;;7.85;74.57;100344.19;5054566;28;20078;-71
2023/04/09 08:35:23;;;;;;;1.25;1.10;;;;;;;7.78;74.40;100344.03;5054445;28;20048;-68
2023/04/09 08:37:52;;;;;;;1.03;1.00;;;;;;;7.75;74.44;100344.81;5054386;28;20403;-69
2023/04/09 08:40:21;;;;;;;2.63;1.83;;;;;;;7.73;74.80;100346.47;5054540;28;20106;-69
2023/04/09 08:42:55;;;;;;;1.38;1.27;;;;;;;7.70;75.01;100346.41;5054393;28;20041;-69
2023/04/09 08:45:24;;;;;;;4.82;2.60;;;;;;;7.72;74.52;100337.16;5054479;28;20045;-69
2023/04/09 08:47:53;;;;;;;2.80;2.13;;;;;;;7.79;75.64;100345.75;5054647;28;20124;-68
2023/04/09 08:50:22;;;;;;;1.27;1.17;;;;;;;7.72;74.84;100339.72;5054309;28;20048;-68
2023/04/09 08:52:51;;;;;;;4.63;2.20;;;;;;;7.81;74.89;100341.56;5054484;28;20441;-69
2023/04/09 08:55:21;;;;;;;1.33;1.23;;;;;;;7.92;74.80;100328.25;5054471;28;20398;-69
2023/04/09 08:57:51;;;;;;;2.58;1.38;;;;;;;8.22;74.73;100334.78;5054213;28;20282;-69
2023/04/09 09:00:20;;;;;;;1.38;1.27;;;;;;;8.47;75.27;100339.53;5054031;28;20475;-67
2023/04/09 09:03:01;;;;;;;;;;;;;;;8.59;74.60;100340.59;5054508;28;20053;-68
2023/04/09 09:05:39;;;;;;;3.42;2.58;;;;;;;8.72;74.24;100346.75;5052865;28;20428;-67
2023/04/09 09:08:09;;;;;;;0.82;0.80;;;;;;;8.86;74.13;100342.75;5053999;28;20049;-67
2023/04/09 09:10:38;;;;;;;;;;;;;;;8.98;73.34;100342.94;5054706;28;20045;-68
2023/04/09 09:13:20;;;;;;;2.45;2.20;;;;;;;9.26;72.69;100347.63;5054019;28;20330;-68
2023/04/09 09:15:52;;;;;;;1.83;1.65;;;;;;;9.55;72.92;100334.50;5054601;28;20450;-67
2023/04/09 09:18:37;;;;;;;2.00;1.85;;;;;;;9.72;72.64;100340.63;5053536;28;20045;-67
2023/04/09 09:21:11;;;;;;;0.95;0.93;;;;;;;9.81;70.85;100344.16;5053847;28;20092;-69
2023/04/09 09:23:41;;;;;;;1.33;0.93;;;;;;;9.95;69.67;100332.47;5053673;28;20063;-67
2023/04/09 09:26:15;;;;;;;0.68;0.68;;;;;;;10.03;68.96;100340.19;5054117;28;20392;-69
2023/04/09 09:28:47;;;;;;;2.70;1.52;;;;;;;10.33;68.38;100335.47;5036179;28;20433;-70
2023/04/09 09:31:16;;;;;;;1.73;1.50;;;;;;;10.20;66.90;100325.97;5053911;28;20067;-70
2023/04/09 09:33:47;;;;;;;3.50;1.85;;;;;;;10.05;65.74;100338.53;5054014;28;20403;-69
2023/04/09 09:36:16;;;;;;;1.17;1.08;;;;;;;10.20;65.61;100325.97;5053441;28;20080;-70
2023/04/09 09:38:55;;;;;;;1.80;1.63;;;;;;;10.32;65.33;100322.72;5053625;28;20045;-68
2023/04/09 09:41:25;;;;;;;1.42;1.30;;;;;;;10.80;65.75;100330.00;5053480;28;20115;-70
2023/04/09 09:43:55;;;;;;;1.92;1.80;;;;;;;11.11;65.00;100334.50;5053727;28;20376;-67
2023/04/09 09:46:27;;;;;;;0.60;0.60;;;;;;;11.17;63.63;100334.53;5053857;28;20045;-68
2023/04/09 09:48:56;;;;;;;1.02;0.93;;;;;;;11.10;62.63;100328.53;5053467;28;20070;-69
2023/04/09 09:51:30;;;;;;;2.43;1.50;;;;;;;11.01;62.38;100333.59;5053443;28;20037;-69
2023/04/09 09:53:59;;;;;;;1.65;1.48;;;;;;;11.02;61.88;100324.19;5053717;28;20070;-70
2023/04/09 09:56:31;;;;;;;;;;;;;;;11.06;61.90;100325.94;5053856;28;20679;-69
2023/04/09 09:59:15;;;;;;;1.88;1.52;;;;;;;11.19;62.21;100322.63;5053362;28;19921;-69
2023/04/09 10:01:46;;;;;;;0.52;0.52;;;;;;;10.89;61.12;100322.41;5053630;28;20407;-68
2023/04/09 10:04:17;;;;;;;1.05;0.95;;;;;;;10.75;61.42;100320.56;5053265;28;20163;-69
2023/04/09 10:06:47;;;;;;;0.85;0.85;;;;;;;10.66;61.35;100320.50;5053633;28;20045;-68
2023/04/09 10:09:21;;;;;;;1.10;1.00;;;;;;;10.55;61.52;100327.22;5053152;28;20044;-67
2023/04/09 10:11:50;;;;;;;0.93;0.90;;;;;;;10.40;61.47;100321.09;5053231;28;20047;-69
2023/04/09 10:14:22;;;;;;;1.05;0.95;;;;;;;10.40;61.48;100321.94;5053558;28;20041;-69
2023/04/09 10:16:51;;;;;;;0.80;0.75;;;;;;;10.48;61.98;100319.47;5053186;28;20055;-68
2023/04/09 10:19:21;;;;;;;1.10;1.00;;;;;;;10.64;62.42;100321.31;5053093;28;20094;-69
2023/04/09 10:21:53;;;;;;;;;;;;;;;10.67;62.46;100322.22;5053709;28;20083;-69
2023/04/09 10:24:23;;;;;;;0.47;0.47;;;;;;;10.61;62.94;100306.84;5053108;28;19948;-69
2023/04/09 10:26:54;;;;;;;1.70;1.52;;;;;;;10.61;62.57;100314.50;5053143;28;20127;-70
2023/04/09 10:29:29;;;;;;;1.52;1.42;;;;;;;10.58;62.71;100311.91;5054848;28;20064;-70
2023/04/09 10:32:05;;;;;;;1.25;1.13;;;;;;;10.54;62.37;100315.28;5057084;28;20045;-69
2023/04/09 10:34:36;;;;;;;3.15;1.70;;;;;;;10.42;62.50;100317.72;5056926;28;20083;-68
2023/04/09 10:37:08;;;;;;;1.63;1.23;;;;;;;10.24;62.93;100314.97;5056821;28;20514;-70
2023/04/09 10:39:42;;;;;;;3.95;2.65;;;;;;;10.19;63.08;100311.53;5057183;28;20091;-68
2023/04/09 10:42:14;;;;;;;4.95;1.90;;;;;;;10.17;63.96;100318.31;5056895;28;20091;-69
2023/04/09 10:44:45;;;;;;;1.00;0.90;;;;;;;10.09;63.72;100314.78;5056029;28;20115;-69
2023/04/09 10:47:32;;;;;;;0.60;0.60;;;;;;;10.09;64.52;100310.53;5057089;28;20124;-68
2023/04/09 10:50:16;;;;;;;1.27;1.17;;;;;;;10.15;65.33;100319.97;5056919;28;20044;-69
2023/04/09 10:52:45;;;;;;;2.65;1.50;;;;;;;10.21;64.69;100314.94;5056589;28;20048;-69
2023/04/09 10:55:36;;;;;;;1.87;0.83;;;;;;;10.27;65.03;100315.00;5056552;28;20586;-70
2023/04/09 10:58:05;;;;;;;5.13;1.67;;;;;;;10.47;65.12;100313.50;5056588;28;20274;-68
2023/04/09 11:00:41;;;;;;;0.93;0.90;;;;;;;10.47;64.51;100310.97;5056418;28;20041;-70
2023/04/09 11:03:23;;;;;;;0.85;0.85;;;;;;;10.36;64.31;100314.25;5056652;28;20099;-68
2023/04/09 11:05:56;;;;;;;2.15;1.85;;;;;;;10.43;64.22;100316.03;5055668;28;20048;-69
2023/04/09 11:08:29;;;;;;;1.40;1.30;;;;;;;10.53;64.13;100312.72;5055934;28;20049;-68
2023/04/09 11:10:59;;;;;;;1.27;0.85;;;;;;;10.53;64.17;100321.22;5056232;28;20054;-69
2023/04/09 11:13:31;;;;;;;4.30;2.75;;;;;;;10.38;63.93;100313.44;5056433;28;20406;-68
2023/04/09 11:16:02;;;;;;;1.45;1.35;;;;;;;10.42;63.64;100320.25;5056139;28;20056;-68
2023/04/09 11:18:33;;;;;;;1.38;0.88;;;;;;;10.40;63.58;100306.63;5056106;28;20127;-69
2023/04/09 11:21:04;;;;;;;1.50;1.40;;;;;;;10.36;63.38;100317.66;5056141;28;20056;-68
2023/04/09 11:23:33;;;;;;;2.40;1.17;;;;;;;10.25;63.44;100309.03;5056316;28;20152;-69
2023/04/09 11:26:02;;;;;;;1.95;1.38;;;;;;;10.31;63.18;100315.91;5055722;28;20055;-69
2023/04/09 11:28:31;;;;;;;1.03;0.83;;;;;;;10.17;62.81;100313.22;5055929;28;20051;-70
2023/04/09 11:31:05;;;;;;;1.20;1.10;;;;;;;10.19;63.53;100311.53;5055876;28;20040;-69
2023/04/09 11:33:34;;;;;;;1.33;1.17;;;;;;;10.18;62.98;100309.78;5056439;28;20430;-68
2023/04/09 11:36:05;;;;;;;0.82;0.82;;;;;;;10.16;63.19;100314.03;5055912;28;20499;-70
2023/04/09 11:38:34;;;;;;;1.05;0.95;;;;;;;10.21;63.80;100303.88;5055784;28;20041;-69
2023/04/09 11:41:03;;;;;;;0.73;0.73;;;;;;;10.34;64.42;100316.75;5055128;28;20049;-68
2023/04/09 11:43:32;;;;;;;1.27;1.00;;;;;;;10.37;64.46;100319.34;5055861;28;20099;-70
2023/04/09 11:46:02;;;;;;;0.80;0.80;;;;;;;10.35;64.85;100320.19;5055618;28;20136;-69
2023/04/09 11:48:31;;;;;;;0.95;0.93;;;;;;;10.43;64.12;100319.44;5055521;28;20060;-69
2023/04/09 11:51:00;;;;;;;0.40;0.40;;;;;;;10.42;64.14;100314.28;5055525;28;20056;-67
2023/04/09 11:53:31;;;;;;;1.95;1.83;;;;;;;10.42;64.27;100324.50;5055719;28;20079;-69
2023/04/09 11:56:01;;;;;;;0.82;0.82;;;;;;;10.42;64.52;100322.81;5055514;28;20045;-69